Time;durP1;ratioP1;P1;durP2;ratioP2;P2;SDS_P1;SDS_P2;PMS_P1;PMS_P2;Temp;Humidity;BMP_temperature;BMP_pressure;BME280_temperature;BME280_humidity;BME280_pressure;Samples;Min_cycle;Max_cycle;Signal;HPM_P1;HPM_P2
2023/06/22 00:00:42;;;;;;;9.20;8.30;;;24.50;80.00;;;;;;4971849;28;20523;-84
2023/06/22 00:03:10;;;;;;;10.90;9.80;;;24.40;80.20;;;;;;4968640;28;20519;-85
2023/06/22 00:05:38;;;;;;;9.90;8.87;;;24.40;80.20;;;;;;4970212;28;20472;-84
2023/06/22 00:08:07;;;;;;;10.50;9.60;;;24.40;80.40;;;;;;4970518;28;20976;-84
2023/06/22 00:10:36;;;;;;;9.27;8.20;;;24.40;80.50;;;;;;4972668;28;20926;-84
2023/06/22 00:13:04;;;;;;;11.47;10.00;;;24.30;80.60;;;;;;4952207;28;20544;-84
2023/06/22 00:15:32;;;;;;;10.73;8.70;;;24.30;80.60;;;;;;4983340;28;20461;-84
2023/06/22 00:18:02;;;;;;;12.67;9.67;;;24.30;80.60;;;;;;4976981;28;20489;-84
2023/06/22 00:20:30;;;;;;;10.63;9.53;;;24.30;80.70;;;;;;4981349;28;20463;-84
2023/06/22 00:23:00;;;;;;;9.90;8.90;;;24.30;80.80;;;;;;4971487;28;20454;-84
2023/06/22 00:25:28;;;;;;;11.20;10.20;;;24.30;80.90;;;;;;4972157;28;20454;-84
2023/06/22 00:27:56;;;;;;;11.43;9.40;;;24.30;80.80;;;;;;4969021;28;20459;-85
2023/06/22 00:30:24;;;;;;;12.23;9.47;;;24.20;81.00;;;;;;4969614;28;20476;-84
2023/06/22 00:32:53;;;;;;;9.63;8.73;;;24.20;81.10;;;;;;4961365;28;20976;-84
2023/06/22 00:35:28;;;;;;;9.40;8.60;;;24.20;81.10;;;;;;4972343;28;20799;-84
2023/06/22 00:38:00;;;;;;;10.87;9.67;;;24.20;81.00;;;;;;4964015;28;20566;-84
2023/06/22 00:40:29;;;;;;;10.83;8.73;;;24.20;81.00;;;;;;4972215;28;20450;-84
2023/06/22 00:42:58;;;;;;;12.03;8.73;;;24.20;81.00;;;;;;4974452;28;20508;-84
2023/06/22 00:45:27;;;;;;;10.10;9.10;;;24.10;81.20;;;;;;4974907;28;20466;-84
2023/06/22 00:47:59;;;;;;;9.70;8.70;;;24.20;81.10;;;;;;4975297;28;20434;-84
2023/06/22 00:50:34;;;;;;;10.20;8.93;;;24.20;81.00;;;;;;4973722;28;20539;-84
2023/06/22 00:53:07;;;;;;;10.80;9.40;;;24.10;81.10;;;;;;4969175;28;20531;-85
2023/06/22 00:55:38;;;;;;;10.37;9.40;;;24.10;81.10;;;;;;4976366;28;20447;-84
2023/06/22 00:58:10;;;;;;;13.50;9.47;;;24.10;81.00;;;;;;4975608;28;20495;-85
2023/06/22 01:00:39;;;;;;;9.90;8.17;;;24.10;81.10;;;;;;4976486;28;20460;-85
2023/06/22 01:03:09;;;;;;;10.17;9.17;;;24.10;81.10;;;;;;4973349;28;20468;-85
2023/06/22 01:05:40;;;;;;;11.90;8.97;;;24.00;81.10;;;;;;4976519;28;20463;-85
2023/06/22 01:08:21;;;;;;;10.80;9.70;;;24.10;81.00;;;;;;4975596;28;20480;-85
2023/06/22 01:10:54;;;;;;;8.83;7.80;;;24.00;81.20;;;;;;4975174;28;20487;-85
2023/06/22 01:13:38;;;;;;;10.10;9.07;;;24.10;80.90;;;;;;4975283;28;20530;-85
2023/06/22 01:16:11;;;;;;;10.70;9.60;;;24.00;80.90;;;;;;4973692;28;20456;-85
2023/06/22 01:18:44;;;;;;;8.80;8.00;;;24.00;81.10;;;;;;4964395;28;20560;-85
2023/06/22 01:21:18;;;;;;;10.03;9.00;;;24.00;81.20;;;;;;4973142;28;20463;-85
2023/06/22 01:24:03;;;;;;;9.73;8.60;;;23.90;81.40;;;;;;4982137;28;20491;-85
2023/06/22 01:26:39;;;;;;;11.87;9.23;;;23.90;81.40;;;;;;4972571;28;20461;-85
2023/06/22 01:29:13;;;;;;;13.70;10.00;;;23.90;81.50;;;;;;4981585;28;20459;-85
2023/06/22 01:31:43;;;;;;;8.63;7.83;;;23.80;81.60;;;;;;4975234;28;20561;-85
2023/06/22 01:34:14;;;;;;;13.23;9.03;;;23.80;81.60;;;;;;4994411;28;20439;-85
2023/06/22 01:36:43;;;;;;;9.77;8.77;;;23.80;81.60;;;;;;4994878;28;20836;-85
2023/06/22 01:39:13;;;;;;;10.67;8.90;;;23.80;81.60;;;;;;4987147;28;20539;-85
2023/06/22 01:41:43;;;;;;;9.60;7.80;;;23.80;81.60;;;;;;4966389;28;20495;-85
2023/06/22 01:44:13;;;;;;;10.20;8.10;;;23.80;81.50;;;;;;4970573;28;20956;-84
2023/06/22 01:46:42;;;;;;;9.07;8.20;;;23.80;81.60;;;;;;4974763;28;20436;-84
2023/06/22 01:49:11;;;;;;;9.63;8.63;;;23.80;81.50;;;;;;4970357;28;21235;-85
2023/06/22 01:51:39;;;;;;;10.90;8.70;;;23.80;81.50;;;;;;4946992;28;20883;-85
2023/06/22 01:54:08;;;;;;;11.53;9.13;;;23.80;81.60;;;;;;4957555;28;20518;-85
2023/06/22 01:56:37;;;;;;;16.10;9.00;;;23.80;81.60;;;;;;4973446;28;20957;-84
2023/06/22 01:59:15;;;;;;;12.77;7.93;;;23.70;81.60;;;;;;4969286;28;21344;-85
2023/06/22 02:01:45;;;;;;;10.00;7.83;;;23.70;81.50;;;;;;4959009;28;21015;-85
2023/06/22 02:04:21;;;;;;;14.93;7.97;;;23.70;81.60;;;;;;4960518;28;21000;-84
2023/06/22 02:06:56;;;;;;;8.40;7.60;;;23.70;81.60;;;;;;4972136;28;21079;-85
2023/06/22 02:09:26;;;;;;;9.67;8.47;;;23.70;81.70;;;;;;4972855;28;20463;-85
2023/06/22 02:11:57;;;;;;;9.53;8.53;;;23.60;81.60;;;;;;4973519;28;20552;-85
2023/06/22 02:14:28;;;;;;;9.73;8.70;;;23.70;81.60;;;;;;4974226;28;20797;-84
2023/06/22 02:16:58;;;;;;;9.37;8.17;;;23.60;81.50;;;;;;4968478;28;20470;-85
2023/06/22 02:19:32;;;;;;;10.37;7.93;;;23.60;81.60;;;;;;4972701;28;20465;-85
2023/06/22 02:22:01;;;;;;;10.10;8.20;;;23.60;81.60;;;;;;4973008;28;20462;-85
2023/06/22 02:24:31;;;;;;;13.07;8.23;;;23.70;81.50;;;;;;4973884;28;20456;-84
2023/06/22 02:27:00;;;;;;;10.73;8.80;;;23.70;81.30;;;;;;4972113;28;20468;-85
2023/06/22 02:29:30;;;;;;;11.50;7.93;;;23.70;81.40;;;;;;4974589;28;20492;-84
2023/06/22 02:31:58;;;;;;;8.40;7.60;;;23.60;81.40;;;;;;4986609;28;20477;-84
2023/06/22 02:34:26;;;;;;;8.63;7.83;;;23.60;81.40;;;;;;4971524;28;20466;-85
2023/06/22 02:36:54;;;;;;;9.97;8.03;;;23.60;81.60;;;;;;4970310;28;20471;-85
2023/06/22 02:39:24;;;;;;;9.20;8.00;;;23.60;81.50;;;;;;4953163;29;20463;-85
2023/06/22 02:41:53;;;;;;;10.00;9.00;;;23.60;81.50;;;;;;4970460;28;20970;-85
2023/06/22 02:44:23;;;;;;;8.50;7.50;;;23.60;81.50;;;;;;4959547;28;20463;-84
2023/06/22 02:46:54;;;;;;;9.73;7.90;;;23.50;81.50;;;;;;4951065;28;20831;-84
2023/06/22 02:49:22;;;;;;;9.63;8.40;;;23.60;81.60;;;;;;4973524;28;21006;-84
2023/06/22 02:51:50;;;;;;;9.17;7.27;;;23.50;81.60;;;;;;4974344;28;20473;-83
2023/06/22 02:54:21;;;;;;;13.63;8.83;;;23.50;81.70;;;;;;4972296;28;20467;-85
2023/06/22 02:56:51;;;;;;;9.23;8.33;;;23.50;81.80;;;;;;4956981;28;20456;-85
2023/06/22 02:59:23;;;;;;;9.53;8.53;;;23.50;81.80;;;;;;4960073;28;20469;-84
2023/06/22 03:01:55;;;;;;;8.67;7.77;;;23.50;81.80;;;;;;4988211;28;20867;-85
2023/06/22 03:04:28;;;;;;;12.30;7.70;;;23.50;81.80;;;;;;4966372;28;20564;-85
2023/06/22 03:06:56;;;;;;;13.70;8.57;;;23.50;81.50;;;;;;4973618;28;20561;-85
2023/06/22 03:09:24;;;;;;;11.50;7.57;;;23.50;81.60;;;;;;4972090;28;20560;-84
2023/06/22 03:11:52;;;;;;;10.70;8.87;;;23.50;81.50;;;;;;4968996;28;20472;-85
2023/06/22 03:14:22;;;;;;;8.47;7.50;;;23.50;81.50;;;;;;4956375;28;20972;-85
2023/06/22 03:16:51;;;;;;;10.40;7.33;;;23.40;81.60;;;;;;4953690;28;20487;-85
2023/06/22 03:19:22;;;;;;;7.50;6.70;;;23.40;81.70;;;;;;4966858;28;20467;-85
2023/06/22 03:21:50;;;;;;;7.80;7.00;;;23.40;81.70;;;;;;4968314;28;20464;-85
2023/06/22 03:24:18;;;;;;;9.27;7.70;;;23.40;81.80;;;;;;4970656;28;20549;-84
2023/06/22 03:26:46;;;;;;;10.40;7.63;;;23.30;81.80;;;;;;4954170;28;20532;-84
2023/06/22 03:29:15;;;;;;;12.00;9.10;;;23.30;81.90;;;;;;4953811;28;20462;-85
2023/06/22 03:31:45;;;;;;;8.67;7.97;;;23.30;81.90;;;;;;4971140;28;20447;-85
2023/06/22 03:34:14;;;;;;;9.20;7.73;;;23.30;81.90;;;;;;4955833;28;20479;-85
2023/06/22 03:36:46;;;;;;;8.70;8.00;;;23.30;81.90;;;;;;4955227;28;20470;-85
2023/06/22 03:39:14;;;;;;;8.30;7.17;;;23.20;81.90;;;;;;4973127;28;20436;-85
2023/06/22 03:41:42;;;;;;;9.10;7.97;;;23.30;81.80;;;;;;4955993;28;20488;-85
2023/06/22 03:44:12;;;;;;;9.80;7.50;;;23.20;81.90;;;;;;4971841;28;20444;-84
2023/06/22 03:46:40;;;;;;;9.77;8.70;;;23.30;81.80;;;;;;4970582;28;20470;-85
2023/06/22 03:49:09;;;;;;;9.67;8.10;;;23.20;82.00;;;;;;4958264;28;20461;-84
2023/06/22 03:51:37;;;;;;;8.63;7.90;;;23.20;82.00;;;;;;4969234;28;20519;-84
2023/06/22 03:54:06;;;;;;;10.07;7.30;;;23.20;82.00;;;;;;4959765;28;20529;-84
2023/06/22 03:56:35;;;;;;;8.20;7.50;;;23.20;82.10;;;;;;4973106;28;20650;-84
2023/06/22 03:59:03;;;;;;;8.10;7.30;;;23.10;82.00;;;;;;4972078;28;20465;-84
2023/06/22 04:01:31;;;;;;;8.00;7.20;;;23.10;82.10;;;;;;4969126;28;20465;-85
2023/06/22 04:03:59;;;;;;;10.50;7.50;;;23.10;82.00;;;;;;4970973;28;20496;-84
2023/06/22 04:06:28;;;;;;;13.63;8.47;;;23.10;82.10;;;;;;4972335;28;20493;-84
2023/06/22 04:08:56;;;;;;;8.20;7.37;;;23.10;82.10;;;;;;4972349;28;20963;-84
2023/06/22 04:11:25;;;;;;;8.20;7.17;;;23.10;82.00;;;;;;4970465;28;20462;-84
2023/06/22 04:13:53;;;;;;;8.83;7.57;;;23.20;81.90;;;;;;4969774;28;20543;-84
2023/06/22 04:16:22;;;;;;;7.70;7.00;;;23.20;81.80;;;;;;4969580;28;20516;-85
2023/06/22 04:18:50;;;;;;;10.27;8.70;;;23.20;81.70;;;;;;4954024;28;20866;-85
2023/06/22 04:21:20;;;;;;;8.97;7.83;;;23.20;81.60;;;;;;4970354;28;20493;-84
2023/06/22 04:23:49;;;;;;;9.40;7.93;;;23.30;81.50;;;;;;4971280;28;20800;-84
2023/06/22 04:26:17;;;;;;;9.57;8.60;;;23.30;81.60;;;;;;4969244;28;20494;-84
2023/06/22 04:28:51;;;;;;;12.33;8.70;;;23.30;81.40;;;;;;4971369;28;20457;-83
2023/06/22 04:31:20;;;;;;;8.70;7.77;;;23.30;81.40;;;;;;4969423;28;20489;-84
2023/06/22 04:33:51;;;;;;;9.03;8.07;;;23.30;81.20;;;;;;4969302;28;20494;-84
2023/06/22 04:36:20;;;;;;;8.57;7.77;;;23.30;81.40;;;;;;4966956;28;20471;-84
2023/06/22 04:38:52;;;;;;;11.30;7.63;;;23.30;81.30;;;;;;4969195;28;20459;-84
2023/06/22 04:41:23;;;;;;;9.90;8.07;;;23.30;81.30;;;;;;4966129;28;20941;-85
2023/06/22 04:43:54;;;;;;;9.17;7.63;;;23.30;81.50;;;;;;4969247;28;21109;-84
2023/06/22 04:46:22;;;;;;;9.23;7.40;;;23.30;81.50;;;;;;4968324;28;20562;-84
2023/06/22 04:48:50;;;;;;;7.80;6.90;;;23.30;81.50;;;;;;4968305;28;20498;-84
2023/06/22 04:51:21;;;;;;;11.10;7.50;;;23.30;81.60;;;;;;4952886;28;20463;-84
2023/06/22 04:53:50;;;;;;;8.40;7.30;;;23.30;81.50;;;;;;4966271;28;20567;-83
2023/06/22 04:56:18;;;;;;;7.53;6.70;;;23.30;81.40;;;;;;4968752;28;20459;-84
2023/06/22 04:58:46;;;;;;;10.23;7.90;;;23.50;81.00;;;;;;4969688;28;20506;-83
2023/06/22 05:01:15;;;;;;;12.70;8.27;;;23.60;80.60;;;;;;4950040;28;20451;-84
2023/06/22 05:03:44;;;;;;;7.40;6.77;;;23.70;80.50;;;;;;4958953;28;20455;-85
2023/06/22 05:06:14;;;;;;;12.73;7.33;;;23.80;80.10;;;;;;4969004;28;20461;-85
2023/06/22 05:08:42;;;;;;;7.00;6.27;;;23.90;79.90;;;;;;4969306;28;20462;-84
2023/06/22 05:11:10;;;;;;;7.83;6.47;;;24.00;79.50;;;;;;4968684;28;20459;-84
2023/06/22 05:13:38;;;;;;;7.60;6.57;;;24.20;78.90;;;;;;4950328;28;20869;-85
2023/06/22 05:16:06;;;;;;;11.10;8.23;;;24.30;78.50;;;;;;4967674;28;20553;-85
2023/06/22 05:18:36;;;;;;;8.27;6.67;;;24.40;78.20;;;;;;4969594;28;20468;-85
2023/06/22 05:21:05;;;;;;;8.50;7.67;;;24.40;78.10;;;;;;4968423;28;20883;-85
2023/06/22 05:23:33;;;;;;;7.60;6.90;;;24.40;78.00;;;;;;4952526;28;20460;-85
2023/06/22 05:26:01;;;;;;;8.97;6.90;;;24.40;78.10;;;;;;4969692;28;20498;-82
2023/06/22 05:28:29;;;;;;;9.43;7.10;;;24.40;78.00;;;;;;4972218;28;20539;-83
2023/06/22 05:30:58;;;;;;;7.60;6.90;;;24.50;78.00;;;;;;4970389;28;20489;-83
2023/06/22 05:33:26;;;;;;;7.73;6.80;;;24.40;78.20;;;;;;4972963;28;20471;-83
2023/06/22 05:35:56;;;;;;;7.80;7.03;;;24.40;78.20;;;;;;4969898;28;20456;-83
2023/06/22 05:38:24;;;;;;;9.97;7.73;;;24.50;78.20;;;;;;4965586;28;20555;-83
2023/06/22 05:40:52;;;;;;;9.57;6.93;;;24.60;78.20;;;;;;4972889;28;20460;-83
2023/06/22 05:43:20;;;;;;;8.77;7.10;;;24.60;78.00;;;;;;4971766;28;20875;-83
2023/06/22 05:45:48;;;;;;;7.10;5.33;;;24.60;78.10;;;;;;4971740;28;20960;-83
2023/06/22 05:48:16;;;;;;;10.10;5.97;;;24.80;77.10;;;;;;4973917;28;20518;-84
2023/06/22 05:50:45;;;;;;;8.40;5.97;;;25.00;76.50;;;;;;4972804;28;20462;-84
2023/06/22 05:53:14;;;;;;;7.27;5.27;;;25.30;75.80;;;;;;4971878;28;20482;-84
2023/06/22 05:55:43;;;;;;;9.03;5.97;;;25.50;75.10;;;;;;4974315;28;20521;-84
2023/06/22 05:58:13;;;;;;;7.20;6.60;;;25.70;74.50;;;;;;4958084;28;20873;-84
2023/06/22 06:00:41;;;;;;;6.80;6.00;;;25.90;73.90;;;;;;4971316;28;20435;-84
2023/06/22 06:03:10;;;;;;;8.47;6.50;;;26.10;73.40;;;;;;4975477;28;20500;-85
2023/06/22 06:05:42;;;;;;;7.13;6.30;;;26.20;73.00;;;;;;4973727;28;20500;-84
2023/06/22 06:08:12;;;;;;;6.63;5.87;;;26.30;72.60;;;;;;4973056;28;20500;-84
2023/06/22 06:10:41;;;;;;;6.63;5.97;;;26.40;72.20;;;;;;4976178;28;20482;-84
2023/06/22 06:13:10;;;;;;;6.40;5.80;;;26.50;72.10;;;;;;4974007;28;20475;-84
2023/06/22 06:15:38;;;;;;;6.47;5.90;;;26.60;71.80;;;;;;4976675;28;20457;-84
2023/06/22 06:18:06;;;;;;;6.63;6.00;;;26.60;71.70;;;;;;4977222;28;20940;-84
2023/06/22 06:20:35;;;;;;;6.83;5.60;;;26.70;71.40;;;;;;4974458;28;20959;-84
2023/06/22 06:23:03;;;;;;;8.40;4.97;;;26.80;71.20;;;;;;4977380;28;20469;-84
2023/06/22 06:25:32;;;;;;;6.17;5.57;;;26.80;71.10;;;;;;4974027;28;20472;-84
2023/06/22 06:28:01;;;;;;;5.83;5.00;;;26.90;70.80;;;;;;4971981;28;20472;-84
2023/06/22 06:30:29;;;;;;;8.30;5.77;;;26.90;70.80;;;;;;4972992;28;20464;-84
2023/06/22 06:32:58;;;;;;;6.17;5.67;;;26.90;70.80;;;;;;4969409;28;20491;-84
2023/06/22 06:35:26;;;;;;;5.90;5.37;;;27.00;70.70;;;;;;4971396;28;20980;-84
2023/06/22 06:37:56;;;;;;;6.50;5.40;;;27.00;70.60;;;;;;4964640;28;20461;-85
2023/06/22 06:40:24;;;;;;;5.10;4.60;;;27.00;70.50;;;;;;4965443;28;20467;-85
2023/06/22 06:42:53;;;;;;;7.17;5.47;;;27.10;70.50;;;;;;4952284;28;20879;-86
2023/06/22 06:45:25;;;;;;;5.57;5.17;;;27.20;70.20;;;;;;4962260;28;20474;-87
2023/06/22 06:47:53;;;;;;;5.97;5.57;;;27.20;70.20;;;;;;4975774;28;20469;-90
2023/06/22 06:50:22;;;;;;;5.80;5.30;;;27.30;70.00;;;;;;4978062;28;20760;-80
2023/06/22 06:52:51;;;;;;;6.27;5.67;;;27.30;69.90;;;;;;4979647;28;20476;-83
2023/06/22 06:55:20;;;;;;;5.73;5.23;;;27.30;69.80;;;;;;4976176;28;20476;-82
2023/06/22 06:57:49;;;;;;;6.67;5.93;;;27.40;69.70;;;;;;4974506;28;20882;-83
2023/06/22 07:00:19;;;;;;;5.77;5.07;;;27.40;69.70;;;;;;4955513;28;20484;-83
2023/06/22 07:02:48;;;;;;;5.57;5.07;;;27.40;69.60;;;;;;4974144;28;20561;-85
2023/06/22 07:05:17;;;;;;;6.40;5.30;;;27.40;69.60;;;;;;4975222;28;20498;-81
2023/06/22 07:07:45;;;;;;;5.00;4.50;;;27.40;69.70;;;;;;4973730;28;20483;-84
2023/06/22 07:10:15;;;;;;;5.13;4.63;;;27.40;69.50;;;;;;4976748;28;20485;-83
2023/06/22 07:12:43;;;;;;;6.10;5.50;;;27.50;69.50;;;;;;4976563;28;20973;-83
2023/06/22 07:15:12;;;;;;;7.27;5.07;;;27.50;69.40;;;;;;4970054;28;20812;-83
2023/06/22 07:17:41;;;;;;;6.33;5.43;;;27.50;69.40;;;;;;4972529;28;20604;-82
2023/06/22 07:20:12;;;;;;;6.17;5.57;;;27.60;69.30;;;;;;4973969;28;21044;-85
2023/06/22 07:22:42;;;;;;;9.27;5.40;;;27.60;69.20;;;;;;4970592;28;20498;-83
2023/06/22 07:25:13;;;;;;;6.93;5.23;;;27.60;69.20;;;;;;4969502;28;20474;-83
2023/06/22 07:27:47;;;;;;;5.43;4.87;;;27.70;69.10;;;;;;4970196;28;20513;-85
2023/06/22 07:30:16;;;;;;;5.63;5.13;;;27.70;68.90;;;;;;4971012;28;20491;-85
2023/06/22 07:32:44;;;;;;;6.03;5.37;;;27.70;68.90;;;;;;4969491;28;20566;-86
2023/06/22 07:35:16;;;;;;;5.30;4.80;;;27.80;68.80;;;;;;4971043;28;20468;-84
2023/06/22 07:37:44;;;;;;;5.90;5.40;;;27.70;68.80;;;;;;4963199;28;20966;-85
2023/06/22 07:40:13;;;;;;;4.83;4.43;;;27.80;68.80;;;;;;4971207;28;20463;-86
2023/06/22 07:42:42;;;;;;;6.60;5.90;;;27.80;68.80;;;;;;4972074;28;20461;-86
2023/06/22 07:45:10;;;;;;;5.43;4.93;;;27.80;68.90;;;;;;4969122;28;21053;-86
2023/06/22 07:47:38;;;;;;;5.57;5.17;;;27.80;68.70;;;;;;4970091;28;20475;-85
2023/06/22 07:50:07;;;;;;;6.17;5.10;;;27.80;68.60;;;;;;4970556;28;20513;-85
2023/06/22 07:52:39;;;;;;;6.20;5.70;;;27.90;68.80;;;;;;4971470;28;21011;-85
2023/06/22 07:55:09;;;;;;;5.80;5.30;;;27.90;68.60;;;;;;4970278;28;20842;-85
2023/06/22 07:57:37;;;;;;;7.03;6.27;;;27.90;68.60;;;;;;4969777;28;20500;-84
2023/06/22 08:00:12;;;;;;;5.60;4.70;;;27.90;68.70;;;;;;4969930;28;20468;-85
2023/06/22 08:02:41;;;;;;;5.90;5.50;;;27.90;68.50;;;;;;4967424;28;20460;-85
2023/06/22 08:05:11;;;;;;;5.40;4.90;;;27.90;68.50;;;;;;4969679;28;20468;-84
2023/06/22 08:07:45;;;;;;;6.83;6.27;;;27.90;68.40;;;;;;4968526;28;20496;-85
2023/06/22 08:10:16;;;;;;;5.50;5.10;;;27.90;68.40;;;;;;4972196;28;20848;-85
2023/06/22 08:12:44;;;;;;;7.40;5.50;;;28.00;68.30;;;;;;4968736;28;20836;-83
2023/06/22 08:15:12;;;;;;;5.20;4.70;;;28.00;68.30;;;;;;4967686;28;20529;-85
2023/06/22 08:17:41;;;;;;;5.87;5.37;;;28.00;68.20;;;;;;4966685;28;21780;-85
2023/06/22 08:20:11;;;;;;;6.17;4.93;;;28.10;68.20;;;;;;4969922;28;20477;-86
2023/06/22 08:22:40;;;;;;;5.30;4.90;;;28.10;68.10;;;;;;4969766;28;20468;-86
2023/06/22 08:25:11;;;;;;;5.63;5.13;;;28.10;68.10;;;;;;4970848;28;20477;-85
2023/06/22 08:27:39;;;;;;;6.20;5.60;;;28.10;68.00;;;;;;4969619;28;20526;-89
2023/06/22 08:30:10;;;;;;;6.30;5.50;;;28.10;68.00;;;;;;4969705;28;20524;-85
2023/06/22 08:32:39;;;;;;;7.07;6.30;;;28.10;68.20;;;;;;4968055;28;20474;-85
2023/06/22 08:35:08;;;;;;;6.27;5.03;;;28.10;68.00;;;;;;4970751;28;20515;-86
2023/06/22 08:37:38;;;;;;;6.03;5.53;;;28.10;67.90;;;;;;4969566;28;20470;-83
2023/06/22 08:40:10;;;;;;;6.60;6.00;;;28.10;67.80;;;;;;4970060;28;20501;-85
2023/06/22 08:42:41;;;;;;;7.63;6.33;;;28.10;67.80;;;;;;4967743;28;20455;-86
2023/06/22 08:45:11;;;;;;;6.80;6.10;;;28.20;68.80;;;;;;4954615;28;20459;-87
2023/06/22 08:47:39;;;;;;;5.53;5.03;;;28.10;68.40;;;;;;4969162;28;20465;-86
2023/06/22 08:50:09;;;;;;;6.30;5.70;;;28.10;68.20;;;;;;4967284;28;20504;-86
2023/06/22 08:52:38;;;;;;;5.97;5.37;;;28.10;68.30;;;;;;4969910;28;20586;-85
2023/06/22 08:55:07;;;;;;;6.17;5.00;;;28.10;68.00;;;;;;4971135;28;20482;-85
2023/06/22 08:57:38;;;;;;;5.67;5.17;;;28.20;68.40;;;;;;4967262;28;20525;-86
2023/06/22 09:00:16;;;;;;;6.93;6.33;;;28.20;68.10;;;;;;4969170;28;20535;-84
2023/06/22 09:02:44;;;;;;;6.20;5.60;;;28.20;68.10;;;;;;4945940;28;20520;-86
2023/06/22 09:05:13;;;;;;;5.90;5.30;;;28.20;67.80;;;;;;4974856;28;20972;-85
2023/06/22 09:07:41;;;;;;;7.07;6.47;;;28.30;67.70;;;;;;4971686;28;20502;-86
2023/06/22 09:10:10;;;;;;;6.63;6.13;;;28.30;67.60;;;;;;4952898;28;20472;-85
2023/06/22 09:12:40;;;;;;;6.30;5.67;;;28.30;67.70;;;;;;4972983;28;20532;-85
2023/06/22 09:15:10;;;;;;;7.43;6.60;;;28.30;67.60;;;;;;4973676;28;20476;-85
2023/06/22 09:17:46;;;;;;;6.00;5.50;;;28.30;67.60;;;;;;4972420;28;20516;-85
2023/06/22 09:20:15;;;;;;;11.30;7.00;;;28.30;67.60;;;;;;4973268;28;20825;-84
2023/06/22 09:22:43;;;;;;;5.80;5.33;;;28.40;67.70;;;;;;4971505;28;20474;-85
2023/06/22 09:25:12;;;;;;;6.70;6.10;;;28.40;67.60;;;;;;4973899;28;20508;-85
2023/06/22 09:27:42;;;;;;;7.40;6.60;;;28.40;67.40;;;;;;4961805;28;20479;-86
2023/06/22 09:30:10;;;;;;;6.90;6.27;;;28.50;68.00;;;;;;4973396;28;20528;-85
2023/06/22 09:32:38;;;;;;;7.30;6.70;;;28.40;67.50;;;;;;4973609;28;20489;-86
2023/06/22 09:35:09;;;;;;;8.63;6.47;;;28.40;68.30;;;;;;4972113;28;20462;-85
2023/06/22 09:37:40;;;;;;;7.20;6.10;;;28.50;67.90;;;;;;4973610;28;21305;-85
2023/06/22 09:40:11;;;;;;;8.90;8.00;;;28.50;67.70;;;;;;4956964;28;20481;-85
2023/06/22 09:42:42;;;;;;;8.17;6.60;;;28.50;68.40;;;;;;4957151;28;20465;-86
2023/06/22 09:45:11;;;;;;;10.10;8.67;;;28.40;68.30;;;;;;4971912;28;20470;-86
2023/06/22 09:47:40;;;;;;;7.70;6.90;;;28.50;68.60;;;;;;4971687;28;20806;-84
2023/06/22 09:50:09;;;;;;;9.40;7.90;;;28.50;68.60;;;;;;4976234;28;20473;-85
2023/06/22 09:52:37;;;;;;;10.20;9.00;;;28.50;70.30;;;;;;4971695;28;20466;-88
2023/06/22 09:55:09;;;;;;;9.20;8.30;;;28.50;69.30;;;;;;4970294;28;20822;-88
2023/06/22 09:57:37;;;;;;;9.93;8.87;;;28.50;69.20;;;;;;4973278;28;20528;-86
2023/06/22 10:00:11;;;;;;;10.13;7.40;;;28.50;68.60;;;;;;4960349;28;20496;-85
2023/06/22 10:02:39;;;;;;;8.23;7.47;;;28.50;69.00;;;;;;4971537;28;20463;-85
2023/06/22 10:05:08;;;;;;;9.20;8.30;;;28.50;69.40;;;;;;4972726;28;20476;-84
2023/06/22 10:07:39;;;;;;;9.57;8.57;;;28.50;69.30;;;;;;4971724;28;20511;-84
2023/06/22 10:10:09;;;;;;;8.30;7.50;;;28.50;69.40;;;;;;4967259;28;20465;-85
2023/06/22 10:12:37;;;;;;;8.00;7.20;;;28.50;69.10;;;;;;4971473;28;20468;-86
2023/06/22 10:15:08;;;;;;;9.50;7.80;;;28.60;68.80;;;;;;4971057;28;20595;-85
2023/06/22 10:17:36;;;;;;;10.90;8.13;;;28.60;68.80;;;;;;4971012;28;20474;-85
2023/06/22 10:20:10;;;;;;;9.10;7.80;;;28.60;68.60;;;;;;4972533;28;20551;-86
2023/06/22 10:22:41;;;;;;;7.53;6.83;;;28.70;68.60;;;;;;4962703;28;20464;-83
2023/06/22 10:25:09;;;;;;;8.43;6.77;;;28.70;68.20;;;;;;4970095;28;20464;-84
2023/06/22 10:27:39;;;;;;;8.00;6.87;;;28.80;68.50;;;;;;4972264;28;21018;-84
2023/06/22 10:30:12;;;;;;;6.67;6.07;;;28.80;68.30;;;;;;4972258;28;20811;-85
2023/06/22 10:32:42;;;;;;;5.57;5.07;;;28.80;67.90;;;;;;4960520;28;20469;-84
2023/06/22 10:35:13;;;;;;;6.57;5.97;;;28.80;67.20;;;;;;4971967;28;20457;-85
2023/06/22 10:37:43;;;;;;;8.03;6.23;;;28.80;67.00;;;;;;4971964;28;20509;-85
2023/06/22 10:40:12;;;;;;;7.03;6.43;;;28.80;67.00;;;;;;4971853;28;21294;-85
2023/06/22 10:42:41;;;;;;;7.20;6.13;;;28.90;67.00;;;;;;4971842;28;20957;-85
2023/06/22 10:45:11;;;;;;;7.27;6.60;;;28.80;66.60;;;;;;4972435;28;20459;-87
2023/06/22 10:47:41;;;;;;;7.10;6.40;;;28.90;66.80;;;;;;4970990;28;20471;-86
2023/06/22 10:50:11;;;;;;;8.80;7.37;;;28.90;66.90;;;;;;4968463;28;20620;-87
2023/06/22 10:52:39;;;;;;;7.70;5.90;;;28.90;68.30;;;;;;4972263;28;20468;-86
2023/06/22 10:55:08;;;;;;;14.37;8.13;;;29.00;66.90;;;;;;4971888;28;20471;-87
2023/06/22 10:57:38;;;;;;;11.00;7.30;;;29.00;67.50;;;;;;4965266;28;20480;-83
2023/06/22 11:00:11;;;;;;;7.47;6.77;;;29.10;67.20;;;;;;4958474;28;20816;-83
2023/06/22 11:02:40;;;;;;;9.60;8.33;;;29.10;66.90;;;;;;4968422;28;20464;-84
2023/06/22 11:05:09;;;;;;;9.40;7.60;;;29.20;67.30;;;;;;4968957;28;20555;-84
2023/06/22 11:07:39;;;;;;;8.63;7.23;;;29.20;66.50;;;;;;4970220;28;20497;-83
2023/06/22 11:10:13;;;;;;;7.00;6.30;;;29.30;66.30;;;;;;4953876;28;20525;-83
2023/06/22 11:12:42;;;;;;;9.33;7.80;;;29.30;66.20;;;;;;4968732;28;20545;-83
2023/06/22 11:15:10;;;;;;;11.33;8.80;;;29.30;66.30;;;;;;4954558;28;20458;-83
2023/06/22 11:17:40;;;;;;;9.57;7.30;;;29.40;65.60;;;;;;4971438;28;20488;-82
2023/06/22 11:20:10;;;;;;;9.83;6.90;;;29.50;66.20;;;;;;4971096;28;20472;-82
2023/06/22 11:22:53;;;;;;;12.47;7.50;;;29.50;66.10;;;;;;4970137;28;20453;-82
2023/06/22 11:25:22;;;;;;;7.03;6.37;;;29.50;65.90;;;;;;4969411;28;20878;-81
2023/06/22 11:27:51;;;;;;;11.90;7.77;;;29.50;65.90;;;;;;4968617;28;20480;-83
2023/06/22 11:30:19;;;;;;;8.40;7.60;;;29.50;66.10;;;;;;4970650;28;20463;-82
2023/06/22 11:32:49;;;;;;;10.60;7.40;;;29.60;65.70;;;;;;4965613;28;20980;-83
2023/06/22 11:35:18;;;;;;;14.13;7.33;;;29.60;65.60;;;;;;4967287;28;20459;-82
2023/06/22 11:37:46;;;;;;;8.43;7.33;;;29.60;65.40;;;;;;4968079;28;20847;-83
2023/06/22 11:40:14;;;;;;;9.30;6.70;;;29.60;65.20;;;;;;4967819;28;21380;-83
2023/06/22 11:42:42;;;;;;;7.73;6.87;;;29.70;64.90;;;;;;4962460;28;20545;-84
2023/06/22 11:45:11;;;;;;;9.53;7.40;;;29.70;64.90;;;;;;4946242;28;20454;-84
2023/06/22 11:47:39;;;;;;;10.60;7.10;;;29.70;64.80;;;;;;4967558;28;20450;-83
2023/06/22 11:50:10;;;;;;;8.20;7.40;;;29.70;65.00;;;;;;4969484;28;20472;-86
2023/06/22 11:52:38;;;;;;;10.73;7.87;;;29.80;65.30;;;;;;4966663;28;20502;-84
2023/06/22 11:55:07;;;;;;;12.20;7.40;;;29.80;65.40;;;;;;4971641;28;20486;-85
2023/06/22 11:57:37;;;;;;;9.80;6.57;;;29.90;64.90;;;;;;4964705;28;20478;-85
2023/06/22 12:00:15;;;;;;;8.10;7.27;;;29.90;64.90;;;;;;4972909;28;20466;-85
2023/06/22 12:02:44;;;;;;;8.00;7.23;;;29.90;64.50;;;;;;4965105;28;20494;-85
2023/06/22 12:05:14;;;;;;;10.50;6.90;;;29.90;65.00;;;;;;4965224;28;20819;-83
2023/06/22 12:07:43;;;;;;;8.43;7.53;;;29.90;64.70;;;;;;4968934;28;20560;-81
2023/06/22 12:10:11;;;;;;;10.13;6.63;;;29.90;65.00;;;;;;4968685;28;20473;-83
2023/06/22 12:12:39;;;;;;;7.83;7.13;;;29.80;65.60;;;;;;4955536;28;20578;-83
2023/06/22 12:15:08;;;;;;;10.07;7.53;;;29.90;65.50;;;;;;4949054;28;20471;-82
2023/06/22 12:17:37;;;;;;;8.07;7.37;;;29.90;65.40;;;;;;4964814;28;20482;-81
2023/06/22 12:20:07;;;;;;;10.50;6.90;;;29.90;65.70;;;;;;4967575;28;20485;-82
2023/06/22 12:22:38;;;;;;;7.70;7.00;;;30.00;65.40;;;;;;4965768;28;20466;-82
2023/06/22 12:25:07;;;;;;;7.77;6.90;;;30.00;65.70;;;;;;4965181;28;20482;-84
2023/06/22 12:27:36;;;;;;;7.03;6.33;;;30.00;65.50;;;;;;4968075;28;20462;-83
2023/06/22 12:30:05;;;;;;;8.40;6.73;;;30.10;65.40;;;;;;4962891;28;22102;-83
2023/06/22 12:32:33;;;;;;;12.03;7.47;;;30.10;65.60;;;;;;4965053;28;20532;-83
2023/06/22 12:35:04;;;;;;;6.73;6.20;;;30.10;65.70;;;;;;4964260;28;20951;-82
2023/06/22 12:37:33;;;;;;;8.70;7.80;;;30.10;65.60;;;;;;4968566;28;20478;-81
2023/06/22 12:40:04;;;;;;;9.53;7.10;;;30.10;66.10;;;;;;4972301;28;20600;-83
2023/06/22 12:42:32;;;;;;;6.73;6.00;;;30.10;65.60;;;;;;4970687;28;20462;-84
2023/06/22 12:45:01;;;;;;;10.63;8.40;;;30.00;65.70;;;;;;4970649;28;20470;-84
2023/06/22 12:47:29;;;;;;;11.77;7.87;;;30.00;66.30;;;;;;4969819;28;20827;-84
2023/06/22 12:49:57;;;;;;;9.70;7.17;;;29.90;65.80;;;;;;4969747;28;20471;-84
2023/06/22 12:52:25;;;;;;;10.47;8.00;;;29.90;66.40;;;;;;4969025;28;20545;-83
2023/06/22 12:54:54;;;;;;;7.57;6.60;;;29.90;66.00;;;;;;4971116;28;20509;-84